sensor_id;sensor_type;location;lat;lon;timestamp;temperature;humidity
34985;DHT22;21190;58.750;17.004;2023-03-31T00:00:45;0.00;99.90
34985;DHT22;21190;58.750;17.004;2023-03-31T00:03:15;-0.10;99.90
34985;DHT22;21190;58.750;17.004;2023-03-31T00:05:57;-0.10;99.90
34985;DHT22;21190;58.750;17.004;2023-03-31T00:08:27;-0.20;99.90
34985;DHT22;21190;58.750;17.004;2023-03-31T00:11:00;-0.10;99.90
34985;DHT22;21190;58.750;17.004;2023-03-31T00:13:28;-0.20;99.90
34985;DHT22;21190;58.750;17.004;2023-03-31T00:15:57;-0.20;99.90
34985;DHT22;21190;58.750;17.004;2023-03-31T00:18:24;-0.30;99.90
34985;DHT22;21190;58.750;17.004;2023-03-31T00:20:53;-0.20;99.90
34985;DHT22;21190;58.750;17.004;2023-03-31T00:23:20;-0.30;99.90
34985;DHT22;21190;58.750;17.004;2023-03-31T00:25:54;-0.30;99.90
34985;DHT22;21190;58.750;17.004;2023-03-31T00:28:30;-0.30;99.90
34985;DHT22;21190;58.750;17.004;2023-03-31T00:31:01;-0.30;99.90
34985;DHT22;21190;58.750;17.004;2023-03-31T00:33:28;-0.30;99.90
34985;DHT22;21190;58.750;17.004;2023-03-31T00:35:55;-0.30;99.90
34985;DHT22;21190;58.750;17.004;2023-03-31T00:38:33;-0.30;99.90
34985;DHT22;21190;58.750;17.004;2023-03-31T00:41:01;-0.30;99.90
34985;DHT22;21190;58.750;17.004;2023-03-31T00:43:31;-0.30;99.90
34985;DHT22;21190;58.750;17.004;2023-03-31T00:46:06;-0.40;99.90
34985;DHT22;21190;58.750;17.004;2023-03-31T00:48:54;-0.30;99.90
34985;DHT22;21190;58.750;17.004;2023-03-31T00:51:26;-0.30;99.90
34985;DHT22;21190;58.750;17.004;2023-03-31T00:53:58;-0.30;99.90
34985;DHT22;21190;58.750;17.004;2023-03-31T00:56:31;-0.30;99.90
34985;DHT22;21190;58.750;17.004;2023-03-31T00:59:02;-0.30;99.90
34985;DHT22;21190;58.750;17.004;2023-03-31T01:01:30;-0.30;99.90
34985;DHT22;21190;58.750;17.004;2023-03-31T01:03:57;-0.30;99.90
34985;DHT22;21190;58.750;17.004;2023-03-31T01:06:25;-0.30;99.90
34985;DHT22;21190;58.750;17.004;2023-03-31T01:08:56;-0.30;99.90
34985;DHT22;21190;58.750;17.004;2023-03-31T01:11:25;-0.30;99.90
34985;DHT22;21190;58.750;17.004;2023-03-31T01:13:54;-0.30;99.90
34985;DHT22;21190;58.750;17.004;2023-03-31T01:16:22;-0.30;99.90
34985;DHT22;21190;58.750;17.004;2023-03-31T01:18:49;-0.30;99.90
34985;DHT22;21190;58.750;17.004;2023-03-31T01:27:35;-0.30;99.90
34985;DHT22;21190;58.750;17.004;2023-03-31T01:35:58;-0.40;99.90
34985;DHT22;21190;58.750;17.004;2023-03-31T01:47:29;-0.30;99.90
34985;DHT22;21190;58.750;17.004;2023-03-31T01:55:19;-0.30;99.90
34985;DHT22;21190;58.750;17.004;2023-03-31T01:58:14;-0.30;99.90
34985;DHT22;21190;58.750;17.004;2023-03-31T02:00:58;-0.30;99.90
34985;DHT22;21190;58.750;17.004;2023-03-31T02:03:31;-0.40;99.90
34985;DHT22;21190;58.750;17.004;2023-03-31T02:06:06;-0.40;99.90
34985;DHT22;21190;58.750;17.004;2023-03-31T02:08:57;-0.40;99.90
34985;DHT22;21190;58.750;17.004;2023-03-31T02:11:28;-0.40;99.90
34985;DHT22;21190;58.750;17.004;2023-03-31T02:13:57;-0.40;99.90
34985;DHT22;21190;58.750;17.004;2023-03-31T02:16:30;-0.40;99.90
34985;DHT22;21190;58.750;17.004;2023-03-31T02:19:00;-0.40;99.90
34985;DHT22;21190;58.750;17.004;2023-03-31T02:21:31;-0.50;99.90
34985;DHT22;21190;58.750;17.004;2023-03-31T02:24:05;-0.40;99.90
34985;DHT22;21190;58.750;17.004;2023-03-31T02:26:41;-0.40;99.90
34985;DHT22;21190;58.750;17.004;2023-03-31T02:29:08;-0.50;99.90
34985;DHT22;21190;58.750;17.004;2023-03-31T02:34:02;-0.50;99.90
34985;DHT22;21190;58.750;17.004;2023-03-31T02:36:29;-0.50;99.90
34985;DHT22;21190;58.750;17.004;2023-03-31T02:39:18;-0.50;99.90
34985;DHT22;21190;58.750;17.004;2023-03-31T02:41:46;-0.50;99.90
34985;DHT22;21190;58.750;17.004;2023-03-31T02:44:13;-0.60;99.90
34985;DHT22;21190;58.750;17.004;2023-03-31T02:46:40;-0.50;99.90
34985;DHT22;21190;58.750;17.004;2023-03-31T02:49:08;-0.50;99.90
34985;DHT22;21190;58.750;17.004;2023-03-31T02:51:46;-0.50;99.90
34985;DHT22;21190;58.750;17.004;2023-03-31T02:57:40;-0.50;99.90
34985;DHT22;21190;58.750;17.004;2023-03-31T03:00:31;-0.50;99.90
34985;DHT22;21190;58.750;17.004;2023-03-31T03:03:28;-0.50;99.90
34985;DHT22;21190;58.750;17.004;2023-03-31T03:08:56;-0.50;99.90
34985;DHT22;21190;58.750;17.004;2023-03-31T03:14:16;-0.50;99.90
34985;DHT22;21190;58.750;17.004;2023-03-31T03:16:47;-0.50;99.90
34985;DHT22;21190;58.750;17.004;2023-03-31T03:19:21;-0.50;99.90
34985;DHT22;21190;58.750;17.004;2023-03-31T03:21:49;-0.50;99.90
34985;DHT22;21190;58.750;17.004;2023-03-31T03:24:17;-0.50;99.90
34985;DHT22;21190;58.750;17.004;2023-03-31T03:26:45;-0.50;99.90
34985;DHT22;21190;58.750;17.004;2023-03-31T03:29:12;-0.50;99.90
34985;DHT22;21190;58.750;17.004;2023-03-31T03:31:41;-0.50;99.90
34985;DHT22;21190;58.750;17.004;2023-03-31T03:34:08;-0.50;99.90
34985;DHT22;21190;58.750;17.004;2023-03-31T03:36:36;-0.60;99.90
34985;DHT22;21190;58.750;17.004;2023-03-31T03:39:06;-0.50;99.90
34985;DHT22;21190;58.750;17.004;2023-03-31T03:41:33;-0.50;99.90
34985;DHT22;21190;58.750;17.004;2023-03-31T03:44:00;-0.50;99.90
34985;DHT22;21190;58.750;17.004;2023-03-31T03:46:27;-0.50;99.90
34985;DHT22;21190;58.750;17.004;2023-03-31T03:48:55;-0.50;99.90
34985;DHT22;21190;58.750;17.004;2023-03-31T03:51:22;-0.50;99.90
34985;DHT22;21190;58.750;17.004;2023-03-31T03:53:49;-0.60;99.90
34985;DHT22;21190;58.750;17.004;2023-03-31T03:56:16;-0.60;99.90
34985;DHT22;21190;58.750;17.004;2023-03-31T03:58:44;-0.60;99.90
34985;DHT22;21190;58.750;17.004;2023-03-31T04:01:11;-0.50;99.90
34985;DHT22;21190;58.750;17.004;2023-03-31T04:03:38;-0.50;99.90
34985;DHT22;21190;58.750;17.004;2023-03-31T04:06:05;-0.60;99.90
34985;DHT22;21190;58.750;17.004;2023-03-31T04:08:32;-0.60;99.90
34985;DHT22;21190;58.750;17.004;2023-03-31T04:10:59;-0.60;99.90
34985;DHT22;21190;58.750;17.004;2023-03-31T04:13:27;-0.70;99.90
34985;DHT22;21190;58.750;17.004;2023-03-31T04:15:54;-0.60;99.90
34985;DHT22;21190;58.750;17.004;2023-03-31T04:18:21;-0.60;99.90
34985;DHT22;21190;58.750;17.004;2023-03-31T04:20:52;-0.50;99.90
34985;DHT22;21190;58.750;17.004;2023-03-31T04:23:33;-0.60;99.90
34985;DHT22;21190;58.750;17.004;2023-03-31T04:26:00;-0.60;99.90
34985;DHT22;21190;58.750;17.004;2023-03-31T04:28:28;-0.70;99.90
34985;DHT22;21190;58.750;17.004;2023-03-31T04:31:01;-0.60;99.90
34985;DHT22;21190;58.750;17.004;2023-03-31T04:33:29;-0.70;99.90
34985;DHT22;21190;58.750;17.004;2023-03-31T04:35:56;-0.70;99.90
34985;DHT22;21190;58.750;17.004;2023-03-31T04:38:24;-0.60;99.90
34985;DHT22;21190;58.750;17.004;2023-03-31T04:40:53;-0.60;99.90
34985;DHT22;21190;58.750;17.004;2023-03-31T04:43:21;-0.60;99.90
34985;DHT22;21190;58.750;17.004;2023-03-31T04:45:48;-0.60;99.90
34985;DHT22;21190;58.750;17.004;2023-03-31T04:48:15;-0.60;99.90
34985;DHT22;21190;58.750;17.004;2023-03-31T04:50:42;-0.60;99.90
34985;DHT22;21190;58.750;17.004;2023-03-31T04:53:09;-0.60;99.90
34985;DHT22;21190;58.750;17.004;2023-03-31T04:55:36;-0.50;99.90
34985;DHT22;21190;58.750;17.004;2023-03-31T04:58:04;-0.70;99.90
34985;DHT22;21190;58.750;17.004;2023-03-31T05:00:31;-0.60;99.90
34985;DHT22;21190;58.750;17.004;2023-03-31T05:02:58;-0.70;99.90
34985;DHT22;21190;58.750;17.004;2023-03-31T05:05:26;-0.50;99.90
34985;DHT22;21190;58.750;17.004;2023-03-31T05:07:53;-0.60;99.90
34985;DHT22;21190;58.750;17.004;2023-03-31T05:10:20;-0.50;99.90
34985;DHT22;21190;58.750;17.004;2023-03-31T05:12:47;-0.60;99.90
34985;DHT22;21190;58.750;17.004;2023-03-31T05:15:15;-0.60;99.90
34985;DHT22;21190;58.750;17.004;2023-03-31T05:17:42;-0.60;99.90
34985;DHT22;21190;58.750;17.004;2023-03-31T05:20:10;-0.60;99.90
34985;DHT22;21190;58.750;17.004;2023-03-31T05:22:38;-0.60;99.90
34985;DHT22;21190;58.750;17.004;2023-03-31T05:25:08;-0.50;99.90
34985;DHT22;21190;58.750;17.004;2023-03-31T05:27:37;-0.60;99.90
34985;DHT22;21190;58.750;17.004;2023-03-31T05:30:05;-0.60;99.90
34985;DHT22;21190;58.750;17.004;2023-03-31T05:32:33;-0.60;99.90
34985;DHT22;21190;58.750;17.004;2023-03-31T05:35:00;-0.60;99.90
34985;DHT22;21190;58.750;17.004;2023-03-31T05:37:28;-0.50;99.90
34985;DHT22;21190;58.750;17.004;2023-03-31T05:39:55;-0.60;99.90
34985;DHT22;21190;58.750;17.004;2023-03-31T05:42:22;-0.50;99.90
34985;DHT22;21190;58.750;17.004;2023-03-31T05:44:49;-0.60;99.90
34985;DHT22;21190;58.750;17.004;2023-03-31T05:47:16;-0.50;99.90
34985;DHT22;21190;58.750;17.004;2023-03-31T05:49:43;-0.40;99.90
34985;DHT22;21190;58.750;17.004;2023-03-31T05:52:11;-0.40;99.90
34985;DHT22;21190;58.750;17.004;2023-03-31T05:54:38;-0.50;99.90
34985;DHT22;21190;58.750;17.004;2023-03-31T05:57:06;-0.50;99.90
34985;DHT22;21190;58.750;17.004;2023-03-31T05:59:33;-0.40;99.90
34985;DHT22;21190;58.750;17.004;2023-03-31T06:02:02;-0.40;99.90
34985;DHT22;21190;58.750;17.004;2023-03-31T06:04:29;-0.40;99.90
34985;DHT22;21190;58.750;17.004;2023-03-31T06:06:58;-0.30;99.90
34985;DHT22;21190;58.750;17.004;2023-03-31T06:09:25;-0.30;99.90
34985;DHT22;21190;58.750;17.004;2023-03-31T06:11:52;-0.40;99.90
34985;DHT22;21190;58.750;17.004;2023-03-31T06:14:19;-0.40;99.90
34985;DHT22;21190;58.750;17.004;2023-03-31T06:16:46;-0.30;99.90
34985;DHT22;21190;58.750;17.004;2023-03-31T06:19:14;-0.40;99.90
34985;DHT22;21190;58.750;17.004;2023-03-31T06:21:41;-0.30;99.90
34985;DHT22;21190;58.750;17.004;2023-03-31T06:24:08;-0.40;99.90
34985;DHT22;21190;58.750;17.004;2023-03-31T06:26:35;-0.40;99.90
34985;DHT22;21190;58.750;17.004;2023-03-31T06:29:02;-0.40;99.90
34985;DHT22;21190;58.750;17.004;2023-03-31T06:31:30;-0.30;99.90
34985;DHT22;21190;58.750;17.004;2023-03-31T06:33:58;-0.30;99.90
34985;DHT22;21190;58.750;17.004;2023-03-31T06:36:25;-0.30;99.90
34985;DHT22;21190;58.750;17.004;2023-03-31T06:38:52;-0.30;99.90
34985;DHT22;21190;58.750;17.004;2023-03-31T06:41:19;-0.30;99.90
34985;DHT22;21190;58.750;17.004;2023-03-31T06:43:48;-0.30;99.90
34985;DHT22;21190;58.750;17.004;2023-03-31T06:46:16;-0.20;99.90
34985;DHT22;21190;58.750;17.004;2023-03-31T06:48:43;-0.10;99.90
34985;DHT22;21190;58.750;17.004;2023-03-31T06:51:10;-0.10;99.90
34985;DHT22;21190;58.750;17.004;2023-03-31T06:53:37;-0.10;99.90
34985;DHT22;21190;58.750;17.004;2023-03-31T06:56:05;0.00;99.90
34985;DHT22;21190;58.750;17.004;2023-03-31T06:58:33;0.00;99.90
34985;DHT22;21190;58.750;17.004;2023-03-31T07:01:02;-0.10;99.90
34985;DHT22;21190;58.750;17.004;2023-03-31T07:03:30;0.00;99.90
34985;DHT22;21190;58.750;17.004;2023-03-31T07:05:57;0.00;99.90
34985;DHT22;21190;58.750;17.004;2023-03-31T07:08:24;-0.10;99.90
34985;DHT22;21190;58.750;17.004;2023-03-31T07:10:57;0.10;99.90
34985;DHT22;21190;58.750;17.004;2023-03-31T07:13:25;0.10;99.90
34985;DHT22;21190;58.750;17.004;2023-03-31T07:15:53;0.10;99.90
34985;DHT22;21190;58.750;17.004;2023-03-31T07:18:21;0.10;99.90
34985;DHT22;21190;58.750;17.004;2023-03-31T07:20:52;0.20;99.90
34985;DHT22;21190;58.750;17.004;2023-03-31T07:23:19;0.20;99.90
34985;DHT22;21190;58.750;17.004;2023-03-31T07:25:46;0.20;99.90
34985;DHT22;21190;58.750;17.004;2023-03-31T07:28:14;0.20;99.90
34985;DHT22;21190;58.750;17.004;2023-03-31T07:30:42;0.20;99.90
34985;DHT22;21190;58.750;17.004;2023-03-31T07:33:09;0.20;99.90
34985;DHT22;21190;58.750;17.004;2023-03-31T07:35:38;0.20;99.90
34985;DHT22;21190;58.750;17.004;2023-03-31T07:38:11;0.20;99.90
34985;DHT22;21190;58.750;17.004;2023-03-31T07:40:39;0.30;99.90
34985;DHT22;21190;58.750;17.004;2023-03-31T07:43:06;0.30;99.90
34985;DHT22;21190;58.750;17.004;2023-03-31T07:45:34;0.30;99.90
34985;DHT22;21190;58.750;17.004;2023-03-31T07:48:02;0.40;99.90
34985;DHT22;21190;58.750;17.004;2023-03-31T07:50:29;0.40;99.90
34985;DHT22;21190;58.750;17.004;2023-03-31T07:52:56;0.40;99.90
34985;DHT22;21190;58.750;17.004;2023-03-31T07:55:23;0.50;99.90
34985;DHT22;21190;58.750;17.004;2023-03-31T07:57:52;0.40;99.90
34985;DHT22;21190;58.750;17.004;2023-03-31T08:00:19;0.50;99.90
34985;DHT22;21190;58.750;17.004;2023-03-31T08:02:47;0.50;99.90
34985;DHT22;21190;58.750;17.004;2023-03-31T08:05:16;0.60;99.90
34985;DHT22;21190;58.750;17.004;2023-03-31T08:07:45;0.70;99.90
34985;DHT22;21190;58.750;17.004;2023-03-31T08:10:16;0.70;99.90
34985;DHT22;21190;58.750;17.004;2023-03-31T08:12:44;0.70;99.90
34985;DHT22;21190;58.750;17.004;2023-03-31T08:15:11;0.80;99.90
34985;DHT22;21190;58.750;17.004;2023-03-31T08:17:39;0.80;99.90
34985;DHT22;21190;58.750;17.004;2023-03-31T08:20:07;0.80;99.90
34985;DHT22;21190;58.750;17.004;2023-03-31T08:22:37;0.80;99.90
34985;DHT22;21190;58.750;17.004;2023-03-31T08:25:05;0.80;99.90
34985;DHT22;21190;58.750;17.004;2023-03-31T08:27:35;0.90;99.90
34985;DHT22;21190;58.750;17.004;2023-03-31T08:30:04;0.90;99.90
34985;DHT22;21190;58.750;17.004;2023-03-31T08:32:33;0.90;99.90
34985;DHT22;21190;58.750;17.004;2023-03-31T08:35:00;0.90;99.90
34985;DHT22;21190;58.750;17.004;2023-03-31T08:37:27;0.90;99.90
34985;DHT22;21190;58.750;17.004;2023-03-31T08:39:54;1.00;99.90
34985;DHT22;21190;58.750;17.004;2023-03-31T08:45:18;1.00;99.90
34985;DHT22;21190;58.750;17.004;2023-03-31T08:47:47;1.10;99.90
34985;DHT22;21190;58.750;17.004;2023-03-31T08:50:24;1.10;99.90
34985;DHT22;21190;58.750;17.004;2023-03-31T08:55:52;1.10;99.90
34985;DHT22;21190;58.750;17.004;2023-03-31T08:58:48;1.10;99.90
34985;DHT22;21190;58.750;17.004;2023-03-31T09:02:04;1.10;99.90
34985;DHT22;21190;58.750;17.004;2023-03-31T09:13:05;1.10;99.90
34985;DHT22;21190;58.750;17.004;2023-03-31T09:18:34;1.20;99.90
34985;DHT22;21190;58.750;17.004;2023-03-31T09:21:16;1.30;99.90
34985;DHT22;21190;58.750;17.004;2023-03-31T09:24:01;1.30;99.90
34985;DHT22;21190;58.750;17.004;2023-03-31T09:27:04;1.20;99.90
34985;DHT22;21190;58.750;17.004;2023-03-31T09:29:54;1.30;99.90
34985;DHT22;21190;58.750;17.004;2023-03-31T09:32:24;1.20;99.90
34985;DHT22;21190;58.750;17.004;2023-03-31T09:34:55;1.30;99.90
34985;DHT22;21190;58.750;17.004;2023-03-31T09:37:27;1.40;99.90
34985;DHT22;21190;58.750;17.004;2023-03-31T09:39:59;1.40;99.90
34985;DHT22;21190;58.750;17.004;2023-03-31T09:42:26;1.40;99.90
34985;DHT22;21190;58.750;17.004;2023-03-31T09:44:53;1.50;99.90
34985;DHT22;21190;58.750;17.004;2023-03-31T09:47:28;1.50;99.90
34985;DHT22;21190;58.750;17.004;2023-03-31T09:49:57;1.50;99.90
34985;DHT22;21190;58.750;17.004;2023-03-31T09:52:32;1.50;99.90
34985;DHT22;21190;58.750;17.004;2023-03-31T09:55:02;1.50;99.90
34985;DHT22;21190;58.750;17.004;2023-03-31T09:57:38;1.50;99.90
34985;DHT22;21190;58.750;17.004;2023-03-31T10:02:55;1.50;99.90
34985;DHT22;21190;58.750;17.004;2023-03-31T10:05:50;1.50;99.90
34985;DHT22;21190;58.750;17.004;2023-03-31T10:08:21;1.40;99.90
34985;DHT22;21190;58.750;17.004;2023-03-31T10:10:54;1.40;99.90
34985;DHT22;21190;58.750;17.004;2023-03-31T10:13:25;1.30;99.90
34985;DHT22;21190;58.750;17.004;2023-03-31T10:15:54;1.30;99.90
34985;DHT22;21190;58.750;17.004;2023-03-31T10:18:39;1.40;99.90
34985;DHT22;21190;58.750;17.004;2023-03-31T10:21:24;1.30;99.90
34985;DHT22;21190;58.750;17.004;2023-03-31T10:23:52;1.20;99.90
34985;DHT22;21190;58.750;17.004;2023-03-31T10:26:24;1.20;99.90
34985;DHT22;21190;58.750;17.004;2023-03-31T10:28:52;1.20;99.90
34985;DHT22;21190;58.750;17.004;2023-03-31T10:31:25;1.20;99.90
34985;DHT22;21190;58.750;17.004;2023-03-31T10:33:52;1.10;99.90
34985;DHT22;21190;58.750;17.004;2023-03-31T10:36:24;1.20;99.90
34985;DHT22;21190;58.750;17.004;2023-03-31T10:38:53;1.10;99.90
34985;DHT22;21190;58.750;17.004;2023-03-31T10:41:23;1.20;99.90
34985;DHT22;21190;58.750;17.004;2023-03-31T10:43:54;1.30;99.90
34985;DHT22;21190;58.750;17.004;2023-03-31T10:46:45;1.30;99.90
34985;DHT22;21190;58.750;17.004;2023-03-31T10:49:19;1.40;99.90
34985;DHT22;21190;58.750;17.004;2023-03-31T10:51:54;1.50;99.90
34985;DHT22;21190;58.750;17.004;2023-03-31T10:54:22;1.60;99.90
34985;DHT22;21190;58.750;17.004;2023-03-31T10:57:00;1.60;99.90
34985;DHT22;21190;58.750;17.004;2023-03-31T11:05:13;1.50;99.90
34985;DHT22;21190;58.750;17.004;2023-03-31T11:16:21;1.50;99.90
34985;DHT22;21190;58.750;17.004;2023-03-31T11:21:31;1.70;99.90
34985;DHT22;21190;58.750;17.004;2023-03-31T11:30:48;1.70;99.90
34985;DHT22;21190;58.750;17.004;2023-03-31T11:42:04;1.70;99.90
34985;DHT22;21190;58.750;17.004;2023-03-31T11:44:40;1.80;99.90
34985;DHT22;21190;58.750;17.004;2023-03-31T11:47:14;1.70;99.90
34985;DHT22;21190;58.750;17.004;2023-03-31T11:49:51;1.70;99.90
34985;DHT22;21190;58.750;17.004;2023-03-31T11:52:29;1.70;99.90
34985;DHT22;21190;58.750;17.004;2023-03-31T11:55:04;1.60;99.90
34985;DHT22;21190;58.750;17.004;2023-03-31T11:57:40;1.70;99.90
34985;DHT22;21190;58.750;17.004;2023-03-31T12:00:18;1.60;99.90
34985;DHT22;21190;58.750;17.004;2023-03-31T12:02:50;1.60;99.90
34985;DHT22;21190;58.750;17.004;2023-03-31T12:05:21;1.60;99.90
34985;DHT22;21190;58.750;17.004;2023-03-31T12:08:01;1.70;99.90
34985;DHT22;21190;58.750;17.004;2023-03-31T12:16:14;1.80;99.90
34985;DHT22;21190;58.750;17.004;2023-03-31T12:21:22;1.80;99.90
34985;DHT22;21190;58.750;17.004;2023-03-31T12:23:51;1.70;99.90
34985;DHT22;21190;58.750;17.004;2023-03-31T12:28:57;1.70;99.90
34985;DHT22;21190;58.750;17.004;2023-03-31T12:31:25;1.70;99.90
34985;DHT22;21190;58.750;17.004;2023-03-31T12:39:18;1.90;99.90
34985;DHT22;21190;58.750;17.004;2023-03-31T12:45:02;1.70;99.90
34985;DHT22;21190;58.750;17.004;2023-03-31T12:53:07;1.70;99.90
34985;DHT22;21190;58.750;17.004;2023-03-31T12:55:40;1.60;99.90
34985;DHT22;21190;58.750;17.004;2023-03-31T13:03:44;1.50;99.90
34985;DHT22;21190;58.750;17.004;2023-03-31T13:09:04;1.60;99.90
34985;DHT22;21190;58.750;17.004;2023-03-31T13:14:16;1.70;99.90
34985;DHT22;21190;58.750;17.004;2023-03-31T13:16:43;1.80;99.90
34985;DHT22;21190;58.750;17.004;2023-03-31T13:19:23;1.80;99.90
34985;DHT22;21190;58.750;17.004;2023-03-31T13:21:54;1.90;99.90
34985;DHT22;21190;58.750;17.004;2023-03-31T13:24:22;1.80;99.90
34985;DHT22;21190;58.750;17.004;2023-03-31T13:26:51;1.90;99.90
34985;DHT22;21190;58.750;17.004;2023-03-31T13:29:25;1.90;99.90
34985;DHT22;21190;58.750;17.004;2023-03-31T13:32:05;1.80;99.90
34985;DHT22;21190;58.750;17.004;2023-03-31T13:37:56;1.90;99.90
34985;DHT22;21190;58.750;17.004;2023-03-31T13:49:19;2.00;99.90
34985;DHT22;21190;58.750;17.004;2023-03-31T13:52:04;1.90;99.90
34985;DHT22;21190;58.750;17.004;2023-03-31T13:55:00;1.80;99.90
34985;DHT22;21190;58.750;17.004;2023-03-31T14:06:37;1.60;99.90
34985;DHT22;21190;58.750;17.004;2023-03-31T14:09:15;1.70;99.90
34985;DHT22;21190;58.750;17.004;2023-03-31T14:11:46;1.70;99.90
34985;DHT22;21190;58.750;17.004;2023-03-31T14:14:15;1.70;99.90
34985;DHT22;21190;58.750;17.004;2023-03-31T14:16:56;1.70;99.90
34985;DHT22;21190;58.750;17.004;2023-03-31T14:23:06;1.90;99.90
34985;DHT22;21190;58.750;17.004;2023-03-31T14:26:02;1.90;99.90
34985;DHT22;21190;58.750;17.004;2023-03-31T14:28:54;1.90;99.90
34985;DHT22;21190;58.750;17.004;2023-03-31T14:34:09;1.80;99.90
34985;DHT22;21190;58.750;17.004;2023-03-31T14:39:15;1.90;99.90
34985;DHT22;21190;58.750;17.004;2023-03-31T14:41:44;1.90;99.90
34985;DHT22;21190;58.750;17.004;2023-03-31T14:44:13;1.80;99.90
34985;DHT22;21190;58.750;17.004;2023-03-31T14:46:41;1.80;99.90
34985;DHT22;21190;58.750;17.004;2023-03-31T14:49:28;1.80;99.90
34985;DHT22;21190;58.750;17.004;2023-03-31T14:52:00;1.80;99.90
34985;DHT22;21190;58.750;17.004;2023-03-31T14:54:33;1.80;99.90
34985;DHT22;21190;58.750;17.004;2023-03-31T14:57:04;1.80;99.90
34985;DHT22;21190;58.750;17.004;2023-03-31T14:59:33;1.80;99.90
34985;DHT22;21190;58.750;17.004;2023-03-31T15:02:03;1.80;99.90
34985;DHT22;21190;58.750;17.004;2023-03-31T15:04:36;1.80;99.90
34985;DHT22;21190;58.750;17.004;2023-03-31T15:07:11;1.80;99.90
34985;DHT22;21190;58.750;17.004;2023-03-31T15:09:47;1.80;99.90
34985;DHT22;21190;58.750;17.004;2023-03-31T15:12:17;1.90;99.90
34985;DHT22;21190;58.750;17.004;2023-03-31T15:14:48;1.90;99.90
34985;DHT22;21190;58.750;17.004;2023-03-31T15:17:29;2.00;99.90
34985;DHT22;21190;58.750;17.004;2023-03-31T15:20:00;2.00;99.90
34985;DHT22;21190;58.750;17.004;2023-03-31T15:22:30;2.00;99.90
34985;DHT22;21190;58.750;17.004;2023-03-31T15:24:57;1.90;99.90
34985;DHT22;21190;58.750;17.004;2023-03-31T15:27:46;1.90;99.90
34985;DHT22;21190;58.750;17.004;2023-03-31T15:30:19;1.80;99.90
34985;DHT22;21190;58.750;17.004;2023-03-31T15:32:47;1.80;99.90
34985;DHT22;21190;58.750;17.004;2023-03-31T15:35:28;1.90;99.90
34985;DHT22;21190;58.750;17.004;2023-03-31T15:37:57;1.90;99.90
34985;DHT22;21190;58.750;17.004;2023-03-31T15:40:31;1.80;99.90
34985;DHT22;21190;58.750;17.004;2023-03-31T15:43:11;1.80;99.90
34985;DHT22;21190;58.750;17.004;2023-03-31T15:45:53;1.70;99.90
34985;DHT22;21190;58.750;17.004;2023-03-31T15:48:31;1.80;99.90
34985;DHT22;21190;58.750;17.004;2023-03-31T15:51:04;1.70;99.90
34985;DHT22;21190;58.750;17.004;2023-03-31T15:53:47;1.70;99.90
34985;DHT22;21190;58.750;17.004;2023-03-31T15:56:40;1.70;99.90
34985;DHT22;21190;58.750;17.004;2023-03-31T15:59:26;1.60;99.90
34985;DHT22;21190;58.750;17.004;2023-03-31T16:02:38;1.50;99.90
34985;DHT22;21190;58.750;17.004;2023-03-31T16:05:22;1.50;99.90
34985;DHT22;21190;58.750;17.004;2023-03-31T16:07:54;1.40;99.90
34985;DHT22;21190;58.750;17.004;2023-03-31T16:10:21;1.40;99.90
34985;DHT22;21190;58.750;17.004;2023-03-31T16:12:58;1.40;99.90
34985;DHT22;21190;58.750;17.004;2023-03-31T16:15:33;1.40;99.90
34985;DHT22;21190;58.750;17.004;2023-03-31T16:18:07;1.40;99.90
34985;DHT22;21190;58.750;17.004;2023-03-31T16:20:38;1.40;99.90
34985;DHT22;21190;58.750;17.004;2023-03-31T16:23:17;1.30;99.90
34985;DHT22;21190;58.750;17.004;2023-03-31T16:25:44;1.30;99.90
34985;DHT22;21190;58.750;17.004;2023-03-31T16:28:15;1.20;99.90
34985;DHT22;21190;58.750;17.004;2023-03-31T16:30:44;1.20;99.90
34985;DHT22;21190;58.750;17.004;2023-03-31T16:33:12;1.20;99.90
34985;DHT22;21190;58.750;17.004;2023-03-31T16:35:42;1.20;99.90
34985;DHT22;21190;58.750;17.004;2023-03-31T16:38:11;1.20;99.90
34985;DHT22;21190;58.750;17.004;2023-03-31T16:40:42;1.20;99.90
34985;DHT22;21190;58.750;17.004;2023-03-31T16:45:57;1.10;99.90
34985;DHT22;21190;58.750;17.004;2023-03-31T16:48:26;1.10;99.90
34985;DHT22;21190;58.750;17.004;2023-03-31T16:50:56;1.00;99.90
34985;DHT22;21190;58.750;17.004;2023-03-31T16:53:30;1.00;99.90
34985;DHT22;21190;58.750;17.004;2023-03-31T16:55:57;1.00;99.90
34985;DHT22;21190;58.750;17.004;2023-03-31T16:58:25;0.90;99.90
34985;DHT22;21190;58.750;17.004;2023-03-31T17:00:55;0.80;99.90
34985;DHT22;21190;58.750;17.004;2023-03-31T17:03:23;0.80;99.90
34985;DHT22;21190;58.750;17.004;2023-03-31T17:05:52;0.80;99.90
34985;DHT22;21190;58.750;17.004;2023-03-31T17:08:40;0.70;99.90
34985;DHT22;21190;58.750;17.004;2023-03-31T17:11:11;0.70;99.90
34985;DHT22;21190;58.750;17.004;2023-03-31T17:13:41;0.60;99.90
34985;DHT22;21190;58.750;17.004;2023-03-31T17:16:09;0.60;99.90
34985;DHT22;21190;58.750;17.004;2023-03-31T17:18:47;0.50;99.90
34985;DHT22;21190;58.750;17.004;2023-03-31T17:21:16;0.50;99.90
34985;DHT22;21190;58.750;17.004;2023-03-31T17:23:46;0.50;99.90
34985;DHT22;21190;58.750;17.004;2023-03-31T17:26:13;0.40;99.90
34985;DHT22;21190;58.750;17.004;2023-03-31T17:28:41;0.30;99.90
34985;DHT22;21190;58.750;17.004;2023-03-31T17:31:19;0.30;99.90
34985;DHT22;21190;58.750;17.004;2023-03-31T17:33:47;0.20;99.90
34985;DHT22;21190;58.750;17.004;2023-03-31T17:36:14;0.20;99.90
34985;DHT22;21190;58.750;17.004;2023-03-31T17:38:41;0.10;99.90
34985;DHT22;21190;58.750;17.004;2023-03-31T17:41:10;0.10;99.90
34985;DHT22;21190;58.750;17.004;2023-03-31T17:43:44;0.00;99.90
34985;DHT22;21190;58.750;17.004;2023-03-31T17:46:12;0.10;99.90
34985;DHT22;21190;58.750;17.004;2023-03-31T17:48:40;0.00;99.90
34985;DHT22;21190;58.750;17.004;2023-03-31T17:51:10;-0.10;99.90
34985;DHT22;21190;58.750;17.004;2023-03-31T17:53:40;-0.10;99.90
34985;DHT22;21190;58.750;17.004;2023-03-31T17:56:07;-0.10;99.90
34985;DHT22;21190;58.750;17.004;2023-03-31T17:58:34;-0.10;99.90
34985;DHT22;21190;58.750;17.004;2023-03-31T18:01:05;-0.20;99.90
34985;DHT22;21190;58.750;17.004;2023-03-31T18:03:33;-0.20;99.90
34985;DHT22;21190;58.750;17.004;2023-03-31T18:06:08;-0.20;99.90
34985;DHT22;21190;58.750;17.004;2023-03-31T18:08:38;-0.30;99.90
34985;DHT22;21190;58.750;17.004;2023-03-31T18:11:06;-0.30;99.90
34985;DHT22;21190;58.750;17.004;2023-03-31T18:13:35;-0.50;99.90
34985;DHT22;21190;58.750;17.004;2023-03-31T18:16:03;-0.50;99.90
34985;DHT22;21190;58.750;17.004;2023-03-31T18:18:30;-0.50;99.90
34985;DHT22;21190;58.750;17.004;2023-03-31T18:21:05;-0.50;99.90
34985;DHT22;21190;58.750;17.004;2023-03-31T18:23:34;-0.60;99.90
34985;DHT22;21190;58.750;17.004;2023-03-31T18:26:04;-0.60;99.90
34985;DHT22;21190;58.750;17.004;2023-03-31T18:28:31;-0.70;99.90
34985;DHT22;21190;58.750;17.004;2023-03-31T18:31:02;-0.60;99.90